sensor_id;sensor_type;location;lat;lon;timestamp;pressure;altitude;pressure_sealevel;temperature;humidity
34921;BME280;21128;50.016;20.002;2023-03-15T00:01:59;97458.39;;;9.71;77.98
34921;BME280;21128;50.016;20.002;2023-03-15T00:04:27;97479.22;;;9.65;78.75
34921;BME280;21128;50.016;20.002;2023-03-15T00:06:54;97475.63;;;9.57;79.24
34921;BME280;21128;50.016;20.002;2023-03-15T00:09:21;97480.91;;;9.49;79.43
34921;BME280;21128;50.016;20.002;2023-03-15T00:11:51;97483.41;;;9.43;79.00
34921;BME280;21128;50.016;20.002;2023-03-15T00:14:20;97512.25;;;9.35;79.11
34921;BME280;21128;50.016;20.002;2023-03-15T00:16:47;97520.44;;;9.23;78.75
34921;BME280;21128;50.016;20.002;2023-03-15T00:19:14;97509.02;;;9.00;77.42
34921;BME280;21128;50.016;20.002;2023-03-15T00:21:42;97525.71;;;8.74;77.85
34921;BME280;21128;50.016;20.002;2023-03-15T00:24:09;97558.23;;;8.56;77.10
34921;BME280;21128;50.016;20.002;2023-03-15T00:26:37;97553.58;;;8.33;78.45
34921;BME280;21128;50.016;20.002;2023-03-15T00:29:05;97576.09;;;8.18;79.08
34921;BME280;21128;50.016;20.002;2023-03-15T00:31:31;97578.14;;;8.06;79.48
34921;BME280;21128;50.016;20.002;2023-03-15T00:33:59;97599.20;;;7.97;81.52
34921;BME280;21128;50.016;20.002;2023-03-15T00:36:26;97601.59;;;7.82;82.12
34921;BME280;21128;50.016;20.002;2023-03-15T00:38:54;97625.84;;;7.66;81.87
34921;BME280;21128;50.016;20.002;2023-03-15T00:41:22;97641.25;;;7.51;82.35
34921;BME280;21128;50.016;20.002;2023-03-15T00:43:50;97652.55;;;7.34;84.42
34921;BME280;21128;50.016;20.002;2023-03-15T00:46:18;97663.52;;;7.20;84.22
34921;BME280;21128;50.016;20.002;2023-03-15T00:48:49;97666.94;;;7.02;85.65
34921;BME280;21128;50.016;20.002;2023-03-15T00:51:19;97673.39;;;6.81;87.24
34921;BME280;21128;50.016;20.002;2023-03-15T00:53:49;97691.27;;;6.58;89.25
34921;BME280;21128;50.016;20.002;2023-03-15T00:56:22;97699.97;;;6.39;89.33
34921;BME280;21128;50.016;20.002;2023-03-15T00:58:50;97729.30;;;6.23;91.18
34921;BME280;21128;50.016;20.002;2023-03-15T01:01:23;97713.95;;;6.10;91.33
34921;BME280;21128;50.016;20.002;2023-03-15T01:03:52;97724.94;;;6.04;91.58
34921;BME280;21128;50.016;20.002;2023-03-15T01:06:22;97728.23;;;5.97;91.59
34921;BME280;21128;50.016;20.002;2023-03-15T01:08:50;97742.08;;;5.87;92.15
34921;BME280;21128;50.016;20.002;2023-03-15T01:11:19;97748.56;;;5.74;91.99
34921;BME280;21128;50.016;20.002;2023-03-15T01:13:51;97760.89;;;5.62;93.07
34921;BME280;21128;50.016;20.002;2023-03-15T01:16:19;97767.89;;;5.52;93.86
34921;BME280;21128;50.016;20.002;2023-03-15T01:18:46;97749.52;;;5.44;93.54
34921;BME280;21128;50.016;20.002;2023-03-15T01:21:14;97788.19;;;5.39;93.33
34921;BME280;21128;50.016;20.002;2023-03-15T01:23:42;97786.26;;;5.31;93.72
34921;BME280;21128;50.016;20.002;2023-03-15T01:26:12;97793.50;;;5.27;93.89
34921;BME280;21128;50.016;20.002;2023-03-15T01:28:39;97787.31;;;5.19;93.59
34921;BME280;21128;50.016;20.002;2023-03-15T01:31:19;97801.00;;;5.11;93.76
34921;BME280;21128;50.016;20.002;2023-03-15T01:33:46;97799.88;;;5.04;94.52
34921;BME280;21128;50.016;20.002;2023-03-15T01:36:13;97809.88;;;4.99;94.38
34921;BME280;21128;50.016;20.002;2023-03-15T01:38:41;97826.70;;;4.95;95.48
34921;BME280;21128;50.016;20.002;2023-03-15T01:41:10;97845.20;;;4.92;95.34
34921;BME280;21128;50.016;20.002;2023-03-15T01:43:37;97843.94;;;4.86;94.97
34921;BME280;21128;50.016;20.002;2023-03-15T01:49:19;97847.41;;;4.66;93.71
34921;BME280;21128;50.016;20.002;2023-03-15T01:52:20;97864.30;;;4.50;93.69
34921;BME280;21128;50.016;20.002;2023-03-15T01:54:49;97865.76;;;4.43;92.31
34921;BME280;21128;50.016;20.002;2023-03-15T01:57:27;97833.30;;;4.38;91.28
34921;BME280;21128;50.016;20.002;2023-03-15T02:00:05;97852.95;;;4.31;90.95
34921;BME280;21128;50.016;20.002;2023-03-15T02:02:42;97846.61;;;4.23;90.13
34921;BME280;21128;50.016;20.002;2023-03-15T02:05:18;97876.40;;;4.19;91.02
34921;BME280;21128;50.016;20.002;2023-03-15T02:07:47;97873.38;;;4.14;90.08
34921;BME280;21128;50.016;20.002;2023-03-15T02:10:30;97865.80;;;4.11;89.37
34921;BME280;21128;50.016;20.002;2023-03-15T02:13:00;97895.48;;;4.09;89.64
34921;BME280;21128;50.016;20.002;2023-03-15T02:15:29;97911.21;;;4.07;90.48
34921;BME280;21128;50.016;20.002;2023-03-15T02:17:57;97928.33;;;4.10;89.52
34921;BME280;21128;50.016;20.002;2023-03-15T02:20:40;97925.86;;;4.08;89.71
34921;BME280;21128;50.016;20.002;2023-03-15T02:23:14;97939.94;;;4.06;88.47
34921;BME280;21128;50.016;20.002;2023-03-15T02:25:49;97918.11;;;3.97;85.23
34921;BME280;21128;50.016;20.002;2023-03-15T02:28:22;97936.91;;;3.89;85.19
34921;BME280;21128;50.016;20.002;2023-03-15T02:30:50;97923.00;;;3.79;84.42
34921;BME280;21128;50.016;20.002;2023-03-15T02:33:34;97937.42;;;3.72;84.32
34921;BME280;21128;50.016;20.002;2023-03-15T02:36:22;97931.75;;;3.67;84.03
34921;BME280;21128;50.016;20.002;2023-03-15T02:38:51;97922.44;;;3.64;84.57
34921;BME280;21128;50.016;20.002;2023-03-15T02:41:27;97934.73;;;3.62;84.55
34921;BME280;21128;50.016;20.002;2023-03-15T02:46:50;97941.79;;;3.60;85.51
34921;BME280;21128;50.016;20.002;2023-03-15T02:49:20;97946.29;;;3.58;86.17
34921;BME280;21128;50.016;20.002;2023-03-15T02:51:49;97957.14;;;3.52;86.25
34921;BME280;21128;50.016;20.002;2023-03-15T02:54:16;97963.54;;;3.48;86.80
34921;BME280;21128;50.016;20.002;2023-03-15T02:56:44;97977.81;;;3.43;86.43
34921;BME280;21128;50.016;20.002;2023-03-15T02:59:11;97980.91;;;3.36;87.96
34921;BME280;21128;50.016;20.002;2023-03-15T03:01:38;97986.44;;;3.32;87.85
34921;BME280;21128;50.016;20.002;2023-03-15T03:04:06;97985.95;;;3.27;88.04
34921;BME280;21128;50.016;20.002;2023-03-15T03:06:33;98006.14;;;3.23;88.20
34921;BME280;21128;50.016;20.002;2023-03-15T03:09:01;98006.14;;;3.23;88.01
34921;BME280;21128;50.016;20.002;2023-03-15T03:11:29;98016.53;;;3.23;88.35
34921;BME280;21128;50.016;20.002;2023-03-15T03:13:57;98027.86;;;3.22;89.20
34921;BME280;21128;50.016;20.002;2023-03-15T03:16:24;98022.88;;;3.19;89.39
34921;BME280;21128;50.016;20.002;2023-03-15T03:18:51;98020.41;;;3.18;89.78
34921;BME280;21128;50.016;20.002;2023-03-15T03:21:19;98017.23;;;3.14;90.21
34921;BME280;21128;50.016;20.002;2023-03-15T03:23:46;98021.71;;;3.12;89.59
34921;BME280;21128;50.016;20.002;2023-03-15T03:26:16;98023.48;;;3.12;89.59
34921;BME280;21128;50.016;20.002;2023-03-15T03:28:45;98026.99;;;3.10;89.68
34921;BME280;21128;50.016;20.002;2023-03-15T03:31:18;98043.39;;;3.11;90.77
34921;BME280;21128;50.016;20.002;2023-03-15T03:33:46;98042.81;;;3.07;91.80
34921;BME280;21128;50.016;20.002;2023-03-15T03:36:14;98032.55;;;3.06;91.09
34921;BME280;21128;50.016;20.002;2023-03-15T03:38:44;98029.95;;;3.06;91.01
34921;BME280;21128;50.016;20.002;2023-03-15T03:41:12;98028.30;;;3.05;91.25
34921;BME280;21128;50.016;20.002;2023-03-15T03:43:40;98031.84;;;3.04;91.31
34921;BME280;21128;50.016;20.002;2023-03-15T03:46:08;98037.24;;;3.01;91.44
34921;BME280;21128;50.016;20.002;2023-03-15T03:48:35;98041.61;;;3.00;91.39
34921;BME280;21128;50.016;20.002;2023-03-15T03:51:03;98050.34;;;2.99;90.97
34921;BME280;21128;50.016;20.002;2023-03-15T03:53:30;98044.32;;;2.99;91.35
34921;BME280;21128;50.016;20.002;2023-03-15T03:55:57;98056.59;;;2.97;90.71
34921;BME280;21128;50.016;20.002;2023-03-15T03:58:25;98044.65;;;2.94;90.41
34921;BME280;21128;50.016;20.002;2023-03-15T04:00:52;98056.92;;;2.92;89.68
34921;BME280;21128;50.016;20.002;2023-03-15T04:03:22;98032.03;;;2.90;89.42
34921;BME280;21128;50.016;20.002;2023-03-15T04:05:54;98063.29;;;2.88;89.86
34921;BME280;21128;50.016;20.002;2023-03-15T04:08:23;98077.09;;;2.89;88.75
34921;BME280;21128;50.016;20.002;2023-03-15T04:10:55;98075.32;;;2.89;88.63
34921;BME280;21128;50.016;20.002;2023-03-15T04:13:23;98081.34;;;2.90;88.51
34921;BME280;21128;50.016;20.002;2023-03-15T04:15:51;98076.03;;;2.91;88.71
34921;BME280;21128;50.016;20.002;2023-03-15T04:18:23;98083.81;;;2.91;88.65
34921;BME280;21128;50.016;20.002;2023-03-15T04:20:50;98069.89;;;2.92;88.32
34921;BME280;21128;50.016;20.002;2023-03-15T04:23:22;98088.06;;;2.92;88.85
34921;BME280;21128;50.016;20.002;2023-03-15T04:25:51;98087.03;;;2.95;88.43
34921;BME280;21128;50.016;20.002;2023-03-15T04:28:21;98088.68;;;2.96;88.73
34921;BME280;21128;50.016;20.002;2023-03-15T04:30:49;98093.75;;;2.97;88.58
34921;BME280;21128;50.016;20.002;2023-03-15T04:33:17;98095.41;;;2.98;88.40
34921;BME280;21128;50.016;20.002;2023-03-15T04:35:44;98090.21;;;2.98;87.44
34921;BME280;21128;50.016;20.002;2023-03-15T04:38:11;98080.06;;;2.95;86.65
34921;BME280;21128;50.016;20.002;2023-03-15T04:40:38;98095.96;;;2.91;85.87
34921;BME280;21128;50.016;20.002;2023-03-15T04:43:09;98106.45;;;2.89;86.36
34921;BME280;21128;50.016;20.002;2023-03-15T04:45:36;98107.41;;;2.88;86.21
34921;BME280;21128;50.016;20.002;2023-03-15T04:48:03;98114.48;;;2.86;85.68
34921;BME280;21128;50.016;20.002;2023-03-15T04:50:30;98125.56;;;2.88;85.23
34921;BME280;21128;50.016;20.002;2023-03-15T04:52:58;98128.98;;;2.89;85.93
34921;BME280;21128;50.016;20.002;2023-03-15T04:55:25;98128.87;;;2.90;85.96
34921;BME280;21128;50.016;20.002;2023-03-15T04:57:53;98133.23;;;2.90;84.21
34921;BME280;21128;50.016;20.002;2023-03-15T05:00:21;98128.98;;;2.89;84.08
34921;BME280;21128;50.016;20.002;2023-03-15T05:02:48;98139.57;;;2.86;83.17
34921;BME280;21128;50.016;20.002;2023-03-15T05:05:21;98128.48;;;2.83;82.97
34921;BME280;21128;50.016;20.002;2023-03-15T05:07:52;98127.66;;;2.83;82.17
34921;BME280;21128;50.016;20.002;2023-03-15T05:10:19;98131.08;;;2.83;82.02
34921;BME280;21128;50.016;20.002;2023-03-15T05:12:47;98137.20;;;2.82;81.51
34921;BME280;21128;50.016;20.002;2023-03-15T05:15:14;98145.93;;;2.81;80.68
34921;BME280;21128;50.016;20.002;2023-03-15T05:17:41;98153.83;;;2.80;81.18
34921;BME280;21128;50.016;20.002;2023-03-15T05:20:09;98155.48;;;2.81;80.44
34921;BME280;21128;50.016;20.002;2023-03-15T05:22:38;98161.61;;;2.80;80.59
34921;BME280;21128;50.016;20.002;2023-03-15T05:25:07;98166.92;;;2.78;80.23
34921;BME280;21128;50.016;20.002;2023-03-15T05:27:36;98140.98;;;2.78;79.78
34921;BME280;21128;50.016;20.002;2023-03-15T05:30:05;98174.79;;;2.77;79.50
34921;BME280;21128;50.016;20.002;2023-03-15T05:32:33;98169.59;;;2.77;79.70
34921;BME280;21128;50.016;20.002;2023-03-15T05:35:01;98186.85;;;2.78;79.44
34921;BME280;21128;50.016;20.002;2023-03-15T05:37:29;98184.14;;;2.79;79.70
34921;BME280;21128;50.016;20.002;2023-03-15T05:39:58;98189.92;;;2.83;79.91
34921;BME280;21128;50.016;20.002;2023-03-15T05:42:27;98195.00;;;2.85;79.41
34921;BME280;21128;50.016;20.002;2023-03-15T05:44:56;98194.06;;;2.86;78.75
34921;BME280;21128;50.016;20.002;2023-03-15T05:47:23;98220.01;;;2.86;78.84
34921;BME280;21128;50.016;20.002;2023-03-15T05:49:50;98208.72;;;2.87;79.06
34921;BME280;21128;50.016;20.002;2023-03-15T05:52:18;98220.41;;;2.92;78.73
34921;BME280;21128;50.016;20.002;2023-03-15T05:54:45;98228.00;;;2.95;78.74
34921;BME280;21128;50.016;20.002;2023-03-15T05:57:12;98225.28;;;2.97;78.00
34921;BME280;21128;50.016;20.002;2023-03-15T05:59:39;98217.50;;;2.97;77.49
34921;BME280;21128;50.016;20.002;2023-03-15T06:02:06;98232.02;;;2.99;77.19
34921;BME280;21128;50.016;20.002;2023-03-15T06:04:34;98240.52;;;3.01;77.10
34921;BME280;21128;50.016;20.002;2023-03-15T06:07:02;98235.13;;;3.04;76.96
34921;BME280;21128;50.016;20.002;2023-03-15T06:09:30;98244.67;;;3.04;76.24
34921;BME280;21128;50.016;20.002;2023-03-15T06:11:57;98243.85;;;3.03;76.61
34921;BME280;21128;50.016;20.002;2023-03-15T06:14:26;98252.34;;;3.05;76.87
34921;BME280;21128;50.016;20.002;2023-03-15T06:16:53;98254.83;;;3.07;75.87
34921;BME280;21128;50.016;20.002;2023-03-15T06:19:21;98255.89;;;3.04;75.22
34921;BME280;21128;50.016;20.002;2023-03-15T06:21:48;98268.86;;;3.04;75.81
34921;BME280;21128;50.016;20.002;2023-03-15T06:24:16;98279.02;;;3.07;75.44
34921;BME280;21128;50.016;20.002;2023-03-15T06:26:43;98280.56;;;3.10;75.83
34921;BME280;21128;50.016;20.002;2023-03-15T06:29:10;98284.61;;;3.14;75.16
34921;BME280;21128;50.016;20.002;2023-03-15T06:31:37;98291.34;;;3.17;75.10
34921;BME280;21128;50.016;20.002;2023-03-15T06:34:04;98284.38;;;3.17;74.09
34921;BME280;21128;50.016;20.002;2023-03-15T06:36:32;98295.70;;;3.16;74.59
34921;BME280;21128;50.016;20.002;2023-03-15T06:38:59;98289.69;;;3.16;74.71
34921;BME280;21128;50.016;20.002;2023-03-15T06:41:28;98299.02;;;3.18;74.38
34921;BME280;21128;50.016;20.002;2023-03-15T06:43:55;98298.81;;;3.21;74.60
34921;BME280;21128;50.016;20.002;2023-03-15T06:46:22;98303.19;;;3.21;74.49
34921;BME280;21128;50.016;20.002;2023-03-15T06:48:50;98292.17;;;3.17;74.31
34921;BME280;21128;50.016;20.002;2023-03-15T06:51:17;98309.63;;;3.15;75.14
34921;BME280;21128;50.016;20.002;2023-03-15T06:53:44;98309.52;;;3.17;74.55
34921;BME280;21128;50.016;20.002;2023-03-15T06:56:12;98316.25;;;3.19;75.35
34921;BME280;21128;50.016;20.002;2023-03-15T06:58:39;98310.23;;;3.19;75.78
34921;BME280;21128;50.016;20.002;2023-03-15T07:01:06;98310.23;;;3.19;75.14
34921;BME280;21128;50.016;20.002;2023-03-15T07:03:33;98314.59;;;3.18;74.68
34921;BME280;21128;50.016;20.002;2023-03-15T07:06:00;98329.23;;;3.19;74.54
34921;BME280;21128;50.016;20.002;2023-03-15T07:08:27;98333.28;;;3.23;74.34
34921;BME280;21128;50.016;20.002;2023-03-15T07:10:54;98319.25;;;3.26;73.47
34921;BME280;21128;50.016;20.002;2023-03-15T07:13:22;98329.44;;;3.29;73.94
34921;BME280;21128;50.016;20.002;2023-03-15T07:15:53;98318.11;;;3.30;72.75
34921;BME280;21128;50.016;20.002;2023-03-15T07:18:21;98333.69;;;3.30;73.39
34921;BME280;21128;50.016;20.002;2023-03-15T07:20:59;98341.48;;;3.30;73.18
34921;BME280;21128;50.016;20.002;2023-03-15T07:23:27;98332.11;;;3.27;72.20
34921;BME280;21128;50.016;20.002;2023-03-15T07:25:56;98343.33;;;3.28;71.80
34921;BME280;21128;50.016;20.002;2023-03-15T07:28:24;98340.02;;;3.26;71.32
34921;BME280;21128;50.016;20.002;2023-03-15T07:31:00;98345.22;;;3.26;72.51
34921;BME280;21128;50.016;20.002;2023-03-15T07:33:30;98353.00;;;3.26;72.49
34921;BME280;21128;50.016;20.002;2023-03-15T07:35:58;98348.75;;;3.25;72.65
34921;BME280;21128;50.016;20.002;2023-03-15T07:38:26;98350.52;;;3.24;73.05
34921;BME280;21128;50.016;20.002;2023-03-15T07:40:59;98359.02;;;3.26;73.36
34921;BME280;21128;50.016;20.002;2023-03-15T07:43:27;98351.03;;;3.29;72.14
34921;BME280;21128;50.016;20.002;2023-03-15T07:45:55;98349.87;;;3.33;72.35
34921;BME280;21128;50.016;20.002;2023-03-15T07:48:22;98359.72;;;3.41;72.36
34921;BME280;21128;50.016;20.002;2023-03-15T07:50:50;98350.44;;;3.50;72.80
34921;BME280;21128;50.016;20.002;2023-03-15T07:53:17;98358.62;;;3.56;71.40
34921;BME280;21128;50.016;20.002;2023-03-15T07:55:46;98366.91;;;3.61;71.57
34921;BME280;21128;50.016;20.002;2023-03-15T07:58:14;98368.48;;;3.64;72.05
34921;BME280;21128;50.016;20.002;2023-03-15T08:00:41;98371.67;;;3.67;71.78
34921;BME280;21128;50.016;20.002;2023-03-15T08:03:08;98381.86;;;3.71;70.92
34921;BME280;21128;50.016;20.002;2023-03-15T08:05:35;98380.92;;;3.72;70.74
34921;BME280;21128;50.016;20.002;2023-03-15T08:08:02;98387.14;;;3.69;68.81
34921;BME280;21128;50.016;20.002;2023-03-15T08:10:30;98391.74;;;3.65;69.30
34921;BME280;21128;50.016;20.002;2023-03-15T08:12:57;98399.54;;;3.65;69.06
34921;BME280;21128;50.016;20.002;2023-03-15T08:15:24;98393.17;;;3.70;68.88
34921;BME280;21128;50.016;20.002;2023-03-15T08:17:52;98399.82;;;3.74;68.96
34921;BME280;21128;50.016;20.002;2023-03-15T08:20:19;98390.02;;;3.77;68.24
34921;BME280;21128;50.016;20.002;2023-03-15T08:22:47;98402.07;;;3.78;69.02
34921;BME280;21128;50.016;20.002;2023-03-15T08:25:18;98407.07;;;3.81;68.55
34921;BME280;21128;50.016;20.002;2023-03-15T08:27:46;98400.33;;;3.79;68.32
34921;BME280;21128;50.016;20.002;2023-03-15T08:30:14;98399.59;;;3.77;68.29
34921;BME280;21128;50.016;20.002;2023-03-15T08:32:43;98399.82;;;3.74;68.00
34921;BME280;21128;50.016;20.002;2023-03-15T08:35:12;98399.22;;;3.70;67.43
34921;BME280;21128;50.016;20.002;2023-03-15T08:37:41;98412.10;;;3.72;68.25
34921;BME280;21128;50.016;20.002;2023-03-15T08:40:15;98404.30;;;3.72;67.71
34921;BME280;21128;50.016;20.002;2023-03-15T08:42:44;98403.36;;;3.73;67.40
34921;BME280;21128;50.016;20.002;2023-03-15T08:45:11;98400.77;;;3.73;66.33
34921;BME280;21128;50.016;20.002;2023-03-15T08:47:38;98408.33;;;3.76;68.07
34921;BME280;21128;50.016;20.002;2023-03-15T08:50:08;98408.13;;;3.79;66.76
34921;BME280;21128;50.016;20.002;2023-03-15T08:52:38;98406.72;;;3.86;66.63
34921;BME280;21128;50.016;20.002;2023-03-15T08:55:06;98420.23;;;3.91;66.32
34921;BME280;21128;50.016;20.002;2023-03-15T08:57:33;98416.97;;;4.00;66.95
34921;BME280;21128;50.016;20.002;2023-03-15T09:00:03;98415.23;;;4.12;66.36
34921;BME280;21128;50.016;20.002;2023-03-15T09:02:47;98425.58;;;4.24;67.40
34921;BME280;21128;50.016;20.002;2023-03-15T09:05:15;98428.01;;;4.39;66.34
34921;BME280;21128;50.016;20.002;2023-03-15T09:07:44;98428.03;;;4.50;65.71
34921;BME280;21128;50.016;20.002;2023-03-15T09:10:13;98432.67;;;4.58;65.08
34921;BME280;21128;50.016;20.002;2023-03-15T09:12:46;98445.56;;;4.59;65.26
34921;BME280;21128;50.016;20.002;2023-03-15T09:15:14;98442.72;;;4.62;64.30
34921;BME280;21128;50.016;20.002;2023-03-15T09:17:42;98441.80;;;4.63;63.87
34921;BME280;21128;50.016;20.002;2023-03-15T09:20:11;98450.52;;;4.62;64.94
34921;BME280;21128;50.016;20.002;2023-03-15T09:22:42;98448.66;;;4.64;64.21
34921;BME280;21128;50.016;20.002;2023-03-15T09:25:09;98454.81;;;4.63;63.79
34921;BME280;21128;50.016;20.002;2023-03-15T09:27:36;98460.94;;;4.62;64.61
34921;BME280;21128;50.016;20.002;2023-03-15T09:30:04;98465.93;;;4.65;64.03
34921;BME280;21128;50.016;20.002;2023-03-15T09:32:31;98448.30;;;4.69;63.48
34921;BME280;21128;50.016;20.002;2023-03-15T09:35:07;98453.63;;;4.67;63.90
34921;BME280;21128;50.016;20.002;2023-03-15T09:37:36;98456.47;;;4.64;63.65
34921;BME280;21128;50.016;20.002;2023-03-15T09:40:03;98464.72;;;4.58;64.11
34921;BME280;21128;50.016;20.002;2023-03-15T09:48:30;98463.06;;;4.57;64.22
34921;BME280;21128;50.016;20.002;2023-03-15T09:53:52;98467.05;;;4.50;64.27
34921;BME280;21128;50.016;20.002;2023-03-15T09:56:34;98467.05;;;4.50;64.01
34921;BME280;21128;50.016;20.002;2023-03-15T09:59:02;98475.57;;;4.52;62.62
34921;BME280;21128;50.016;20.002;2023-03-15T10:01:36;98478.30;;;4.50;61.66
34921;BME280;21128;50.016;20.002;2023-03-15T10:04:16;98476.05;;;4.46;61.19
34921;BME280;21128;50.016;20.002;2023-03-15T10:06:48;98480.39;;;4.45;60.28
34921;BME280;21128;50.016;20.002;2023-03-15T10:09:24;98487.48;;;4.43;60.14
34921;BME280;21128;50.016;20.002;2023-03-15T10:17:14;98485.23;;;4.39;60.52
34921;BME280;21128;50.016;20.002;2023-03-15T10:20:02;98492.92;;;4.40;59.17
34921;BME280;21128;50.016;20.002;2023-03-15T10:25:30;98495.64;;;4.39;60.05
34921;BME280;21128;50.016;20.002;2023-03-15T10:28:02;98495.80;;;4.48;60.46
34921;BME280;21128;50.016;20.002;2023-03-15T10:30:32;98495.70;;;4.61;60.39
34921;BME280;21128;50.016;20.002;2023-03-15T10:35:47;98507.59;;;4.76;59.57
34921;BME280;21128;50.016;20.002;2023-03-15T10:38:20;98514.58;;;4.76;59.45
34921;BME280;21128;50.016;20.002;2023-03-15T10:40:48;98499.58;;;4.79;58.29
34921;BME280;21128;50.016;20.002;2023-03-15T10:43:27;98513.63;;;4.77;58.25
34921;BME280;21128;50.016;20.002;2023-03-15T10:46:06;98517.06;;;4.77;57.51
34921;BME280;21128;50.016;20.002;2023-03-15T10:48:39;98505.94;;;4.75;56.65
34921;BME280;21128;50.016;20.002;2023-03-15T10:51:19;98509.49;;;4.74;57.68
34921;BME280;21128;50.016;20.002;2023-03-15T10:56:31;98517.14;;;5.00;57.66
34921;BME280;21128;50.016;20.002;2023-03-15T10:59:01;98513.01;;;5.08;58.41
34921;BME280;21128;50.016;20.002;2023-03-15T11:01:31;98517.89;;;5.13;57.39
34921;BME280;21128;50.016;20.002;2023-03-15T11:04:22;98510.33;;;5.21;57.56
34921;BME280;21128;50.016;20.002;2023-03-15T11:09:21;98512.68;;;5.13;57.34
34921;BME280;21128;50.016;20.002;2023-03-15T11:12:00;98528.52;;;5.10;55.45
34921;BME280;21128;50.016;20.002;2023-03-15T11:14:37;98509.82;;;5.05;54.50
34921;BME280;21128;50.016;20.002;2023-03-15T11:17:16;98506.27;;;5.06;54.38
34921;BME280;21128;50.016;20.002;2023-03-15T11:19:57;98504.12;;;5.11;54.44
34921;BME280;21128;50.016;20.002;2023-03-15T11:22:25;98523.09;;;5.13;55.00
34921;BME280;21128;50.016;20.002;2023-03-15T11:24:52;98512.06;;;5.09;54.21
34921;BME280;21128;50.016;20.002;2023-03-15T11:27:22;98509.22;;;5.13;55.26
34921;BME280;21128;50.016;20.002;2023-03-15T11:29:57;98502.59;;;5.20;55.35
34921;BME280;21128;50.016;20.002;2023-03-15T11:32:31;98502.72;;;5.29;54.88
34921;BME280;21128;50.016;20.002;2023-03-15T11:35:05;98511.61;;;5.27;54.26
34921;BME280;21128;50.016;20.002;2023-03-15T11:37:49;98506.86;;;5.21;53.80
34921;BME280;21128;50.016;20.002;2023-03-15T11:40:24;98507.47;;;5.13;54.61
34921;BME280;21128;50.016;20.002;2023-03-15T11:43:07;98525.45;;;5.05;54.65
34921;BME280;21128;50.016;20.002;2023-03-15T11:45:54;98522.11;;;5.03;53.91
34921;BME280;21128;50.016;20.002;2023-03-15T11:48:46;98527.55;;;5.00;54.78
34921;BME280;21128;50.016;20.002;2023-03-15T11:51:14;98530.86;;;5.02;54.58
34921;BME280;21128;50.016;20.002;2023-03-15T11:53:50;98508.13;;;5.04;53.69
34921;BME280;21128;50.016;20.002;2023-03-15T11:56:24;98519.50;;;5.03;54.15
34921;BME280;21128;50.016;20.002;2023-03-15T12:01:29;98513.84;;;5.09;53.91
34921;BME280;21128;50.016;20.002;2023-03-15T12:17:38;98531.08;;;5.56;54.10
34921;BME280;21128;50.016;20.002;2023-03-15T12:22:49;98529.54;;;5.65;53.75
34921;BME280;21128;50.016;20.002;2023-03-15T12:25:34;98531.19;;;5.66;53.00
34921;BME280;21128;50.016;20.002;2023-03-15T12:28:20;98519.58;;;5.81;53.68
34921;BME280;21128;50.016;20.002;2023-03-15T12:30:53;98520.16;;;5.96;53.72
34921;BME280;21128;50.016;20.002;2023-03-15T12:33:25;98524.20;;;6.00;52.94
34921;BME280;21128;50.016;20.002;2023-03-15T12:36:06;98520.39;;;6.04;53.39
34921;BME280;21128;50.016;20.002;2023-03-15T12:38:37;98521.09;;;6.17;52.68
34921;BME280;21128;50.016;20.002;2023-03-15T12:41:08;98524.39;;;6.19;52.08
34921;BME280;21128;50.016;20.002;2023-03-15T12:43:45;98526.88;;;6.21;51.25
34921;BME280;21128;50.016;20.002;2023-03-15T12:49:13;98524.30;;;6.10;51.53
34921;BME280;21128;50.016;20.002;2023-03-15T12:51:55;98525.52;;;6.06;51.34
34921;BME280;21128;50.016;20.002;2023-03-15T12:54:25;98525.98;;;6.00;51.71
34921;BME280;21128;50.016;20.002;2023-03-15T12:56:56;98524.45;;;5.97;51.53
34921;BME280;21128;50.016;20.002;2023-03-15T12:59:38;98527.77;;;5.99;52.09
34921;BME280;21128;50.016;20.002;2023-03-15T13:05:15;98520.99;;;6.08;50.91
34921;BME280;21128;50.016;20.002;2023-03-15T13:07:56;98523.95;;;6.03;51.26
34921;BME280;21128;50.016;20.002;2023-03-15T13:16:50;98538.89;;;5.90;51.75
34921;BME280;21128;50.016;20.002;2023-03-15T13:19:41;98525.50;;;5.95;52.21
34921;BME280;21128;50.016;20.002;2023-03-15T13:25:08;98530.23;;;5.78;51.54
34921;BME280;21128;50.016;20.002;2023-03-15T13:30:40;98531.06;;;5.68;51.58
34921;BME280;21128;50.016;20.002;2023-03-15T13:33:23;98525.27;;;5.75;51.46
34921;BME280;21128;50.016;20.002;2023-03-15T13:36:03;98546.61;;;5.80;51.33
34921;BME280;21128;50.016;20.002;2023-03-15T13:38:43;98543.50;;;5.86;51.69
34921;BME280;21128;50.016;20.002;2023-03-15T13:41:22;98540.89;;;5.86;51.43
34921;BME280;21128;50.016;20.002;2023-03-15T13:43:53;98570.18;;;5.90;50.84
34921;BME280;21128;50.016;20.002;2023-03-15T13:46:23;98559.97;;;5.87;51.15
34921;BME280;21128;50.016;20.002;2023-03-15T13:48:52;98558.70;;;5.92;51.81
34921;BME280;21128;50.016;20.002;2023-03-15T13:51:26;98566.66;;;5.91;51.19
34921;BME280;21128;50.016;20.002;2023-03-15T13:56:53;98569.57;;;5.86;50.89
34921;BME280;21128;50.016;20.002;2023-03-15T13:59:28;98577.77;;;5.82;51.63
34921;BME280;21128;50.016;20.002;2023-03-15T14:01:59;98581.91;;;5.84;51.11
34921;BME280;21128;50.016;20.002;2023-03-15T14:04:28;98591.39;;;5.85;50.19
34921;BME280;21128;50.016;20.002;2023-03-15T14:09:39;98584.27;;;5.76;50.21
34921;BME280;21128;50.016;20.002;2023-03-15T14:12:17;98588.30;;;5.69;50.12
34921;BME280;21128;50.016;20.002;2023-03-15T14:14:49;98594.70;;;5.65;49.73
34921;BME280;21128;50.016;20.002;2023-03-15T14:17:35;98597.44;;;5.63;50.06
34921;BME280;21128;50.016;20.002;2023-03-15T14:20:07;98595.66;;;5.64;50.73
34921;BME280;21128;50.016;20.002;2023-03-15T14:22:35;98594.70;;;5.65;50.78
34921;BME280;21128;50.016;20.002;2023-03-15T14:25:03;98605.72;;;5.69;50.68
34921;BME280;21128;50.016;20.002;2023-03-15T14:27:44;98604.18;;;5.66;50.12
34921;BME280;21128;50.016;20.002;2023-03-15T14:30:34;98589.00;;;5.60;50.64
34921;BME280;21128;50.016;20.002;2023-03-15T14:33:05;98604.88;;;5.57;49.85